Impacts METAR Board
IDs:

KPIT - Pittsburgh Intl, PA, US

Updated at: 1500 UTC 20 Aug 2019
Potential Impact None Slight Moderate High
Time 20/03Z 20/04Z 20/05Z 20/06Z 20/07Z 20/08Z 20/09Z 20/10Z 20/11Z 20/12Z 20/13Z 20/14Z 20/15Z
Temp74 73 71 70 69 69 69 68 67 71 74 76 78
Dewpt67 66 66 66 66 66 65 65 65 67 67 68 68
Altim30.10 30.10 30.10 30.10 30.10 30.10 30.09 30.09 30.11 30.11 30.12 30.13 30.10
VIS10 10 10 10 10 10 9 10 10 10 10 10 10
CIG-- -- -- -- -- -- 250 250 250 250 250 220 220
CoverFEWFEWFEWSCTSCTSCTBKNOVCOVCOVCBKNOVCBKN
FltCatVFRVFRVFRVFRVFRVFRVFRVFRVFRVFRVFRVFRVFR
WX--------------------------
WDir00000000080110170160
WSpd0 0 0 0 0 0 0 0 0 3 3 3 4
WGst-- -- -- -- -- -- -- -- -- -- -- -- --
Raw hourly METARs
KPIT 200251Z 00000KT 10SM FEW070 FEW250 23/19 A3010 RMK AO2 SLP189 T02330194 53017
KPIT 200351Z 00000KT 10SM FEW070 FEW250 23/19 A3010 RMK AO2 SLP190 T02280189
KPIT 200451Z 00000KT 10SM FEW250 22/19 A3010 RMK AO2 SLP190 T02170189 403000194
KPIT 200551Z 00000KT 10SM SCT250 21/19 A3010 RMK AO2 SLP190 T02110189 10272 20211 50001
KPIT 200651Z 00000KT 10SM SCT250 21/19 A3010 RMK AO2 SLP189 T02060189
KPIT 200751Z 00000KT 10SM FEW012 FEW060 SCT250 21/19 A3010 RMK AO2 SLP188 T02060189
KPIT 200851Z 00000KT 9SM FEW012 FEW050 BKN250 21/18 A3009 RMK AO2 SLP188 T02060183 56002
KPIT 200951Z 00000KT 10SM FEW055 OVC250 20/18 A3009 RMK AO2 SLP187 T02000183
KPIT 201051Z 00000KT 10SM FEW055 OVC250 19/18 A3011 RMK AO2 SLP194 T01940183
KPIT 201151Z 08003KT 10SM FEW055 OVC250 22/19 A3011 RMK AO2 SLP195 T02170194 10217 20194 53006
KPIT 201251Z 11003KT 10SM FEW050 FEW085 BKN250 23/19 A3012 RMK AO2 SLP197 T02330194
KPIT 201351Z 17003KT 10SM SCT050 SCT085 OVC220 24/20 A3013 RMK AO2 SLP200 T02440200
KPIT 201451Z 16004KT 10SM SCT050 BKN220 26/20 A3010 RMK AO2 SLP192 T02560200 58003



Page loaded:  15:48 UTC  |   08:48 AM Pacific  |   09:48 AM Mountain  |   10:48 AM Central  |   11:48 AM Eastern

 

ADVISORIES

FORECASTS

FORECASTS

OBSERVATIONS

USER TOOLS

ABOUT US